createdAt,value
2018-06-08T00:01:17.456Z,20.90
2018-06-08T00:03:46.227Z,20.90
2018-06-08T00:06:14.910Z,20.90
2018-06-08T00:08:43.545Z,20.90
2018-06-08T00:11:12.238Z,20.90
2018-06-08T00:13:40.972Z,20.80
2018-06-08T00:16:09.809Z,20.80
2018-06-08T00:18:39.714Z,20.80
2018-06-08T00:21:08.659Z,19.30
2018-06-08T00:23:37.523Z,20.70
2018-06-08T00:26:06.530Z,20.60
2018-06-08T00:28:35.298Z,20.60
2018-06-08T00:31:04.116Z,20.60
2018-06-08T00:33:32.829Z,20.60
2018-06-08T00:36:01.672Z,20.60
2018-06-08T00:38:30.425Z,20.50
2018-06-08T00:40:59.282Z,20.60
2018-06-08T00:43:28.130Z,20.50
2018-06-08T00:45:56.854Z,20.40
2018-06-08T00:48:25.995Z,20.40
2018-06-08T00:50:54.949Z,20.40
2018-06-08T00:53:24.966Z,20.40
2018-06-08T00:55:53.740Z,20.40
2018-06-08T00:58:22.632Z,20.30
2018-06-08T01:00:51.295Z,20.30
2018-06-08T01:03:20.206Z,20.10
2018-06-08T01:05:48.967Z,20.20
2018-06-08T01:08:17.767Z,20.10
2018-06-08T01:10:46.544Z,20.00
2018-06-08T01:13:15.321Z,20.10
2018-06-08T01:15:44.141Z,20.10
2018-06-08T01:18:13.844Z,20.10
2018-06-08T01:20:42.639Z,20.10
2018-06-08T01:23:11.518Z,20.10
2018-06-08T01:25:40.504Z,20.20
2018-06-08T01:28:09.543Z,20.20
2018-06-08T01:30:38.373Z,20.20
2018-06-08T01:33:07.272Z,20.10
2018-06-08T01:35:35.994Z,20.40
2018-06-08T01:38:04.806Z,20.10
2018-06-08T01:40:33.769Z,20.10
2018-06-08T01:43:02.586Z,20.00
2018-06-08T01:45:31.583Z,20.00
2018-06-08T01:48:00.320Z,20.00
2018-06-08T01:50:29.549Z,19.90
2018-06-08T01:52:58.246Z,19.80
2018-06-08T01:55:26.943Z,19.70
2018-06-08T01:57:55.958Z,19.70
2018-06-08T02:00:24.697Z,19.80
2018-06-08T02:02:53.810Z,19.80
2018-06-08T02:05:22.618Z,19.80
2018-06-08T02:07:51.320Z,18.10
2018-06-08T02:10:20.146Z,19.90
2018-06-08T02:12:48.828Z,19.90
2018-06-08T02:15:17.714Z,19.80
2018-06-08T02:17:46.468Z,19.80
2018-06-08T02:20:15.270Z,19.80
2018-06-08T02:22:44.031Z,19.90
2018-06-08T02:25:12.994Z,19.90
2018-06-08T02:27:41.671Z,19.90
2018-06-08T02:30:10.390Z,19.90
2018-06-08T02:32:39.112Z,20.20
2018-06-08T02:35:07.755Z,19.90
2018-06-08T02:37:36.639Z,19.80
2018-06-08T02:40:05.377Z,19.80
2018-06-08T02:42:34.129Z,19.70
2018-06-08T02:45:02.887Z,19.90
2018-06-08T02:47:31.698Z,19.90
2018-06-08T02:50:00.416Z,19.90
2018-06-08T02:52:29.101Z,19.80
2018-06-08T02:54:58.030Z,19.80
2018-06-08T02:57:26.704Z,19.70
2018-06-08T02:59:55.373Z,19.70
2018-06-08T03:02:24.283Z,19.60
2018-06-08T03:04:53.131Z,19.70
2018-06-08T03:07:21.931Z,19.70
2018-06-08T03:09:50.541Z,19.70
2018-06-08T03:12:19.636Z,19.70
2018-06-08T03:14:48.765Z,19.70
2018-06-08T03:17:17.625Z,19.60
2018-06-08T03:19:46.303Z,19.60
2018-06-08T03:22:14.907Z,19.50
2018-06-08T03:24:43.864Z,19.50
2018-06-08T03:27:12.629Z,19.40
2018-06-08T03:29:42.017Z,18.50
2018-06-08T03:32:12.615Z,19.00
2018-06-08T03:34:41.367Z,19.00
2018-06-08T03:37:10.099Z,18.90
2018-06-08T03:39:38.945Z,18.90
2018-06-08T03:42:07.628Z,18.90
2018-06-08T03:44:36.307Z,18.90
2018-06-08T03:47:05.211Z,19.20
2018-06-08T03:49:34.292Z,17.20
2018-06-08T03:52:03.284Z,18.90
2018-06-08T03:54:32.048Z,19.10
2018-06-08T03:57:00.756Z,20.90
2018-06-08T03:59:29.610Z,19.20
2018-06-08T04:01:58.527Z,19.30
2018-06-08T04:04:27.461Z,19.30
2018-06-08T04:06:56.333Z,19.30
2018-06-08T04:09:25.204Z,19.30
2018-06-08T04:11:53.936Z,19.40
2018-06-08T04:14:22.905Z,19.40
2018-06-08T04:16:51.671Z,19.30
2018-06-08T04:19:20.380Z,19.30
2018-06-08T04:21:49.094Z,19.30
2018-06-08T04:24:17.838Z,19.40
2018-06-08T04:26:46.685Z,19.30
2018-06-08T04:29:15.905Z,19.30
2018-06-08T04:31:44.789Z,19.40
2018-06-08T04:34:13.682Z,19.50
2018-06-08T04:36:42.437Z,19.50
2018-06-08T04:39:11.055Z,19.60
2018-06-08T04:41:39.876Z,19.70
2018-06-08T04:44:08.744Z,19.60
2018-06-08T04:46:37.626Z,17.70
2018-06-08T04:49:06.633Z,19.70
2018-06-08T04:51:35.302Z,19.90
2018-06-08T04:54:04.038Z,19.90
2018-06-08T04:59:20.725Z,19.90
2018-06-08T05:01:50.055Z,19.90
2018-06-08T05:04:18.794Z,19.90
2018-06-08T05:06:47.506Z,19.90
2018-06-08T05:09:16.574Z,19.90
2018-06-08T05:11:45.280Z,20.00
2018-06-08T05:14:14.156Z,20.00
2018-06-08T05:16:42.925Z,20.00
2018-06-08T05:19:11.693Z,20.10
2018-06-08T05:21:40.510Z,20.20
2018-06-08T05:24:09.231Z,20.20
2018-06-08T05:26:37.899Z,20.20
2018-06-08T05:29:06.943Z,20.20
2018-06-08T05:31:35.759Z,20.20
2018-06-08T05:34:04.698Z,20.20
2018-06-08T05:36:33.468Z,20.20
2018-06-08T05:39:02.324Z,20.20
2018-06-08T05:41:31.089Z,20.40
2018-06-08T05:44:00.381Z,20.50
2018-06-08T05:46:29.076Z,20.50
2018-06-08T05:48:57.956Z,20.50
2018-06-08T05:51:27.551Z,20.50
2018-06-08T05:53:56.487Z,20.60
2018-06-08T05:58:53.988Z,20.70
2018-06-08T06:01:22.862Z,21.00
2018-06-08T06:04:00.159Z,21.00
2018-06-08T06:09:08.951Z,21.20
2018-06-08T06:11:39.119Z,21.30
2018-06-08T06:14:07.944Z,21.30
2018-06-08T06:16:37.206Z,21.50
2018-06-08T06:19:06.169Z,21.50
2018-06-08T06:21:38.055Z,21.60
2018-06-08T06:24:07.193Z,21.70
2018-06-08T06:29:04.650Z,21.40
2018-06-08T06:31:33.441Z,21.90
2018-06-08T06:34:02.561Z,22.00
2018-06-08T06:36:31.454Z,22.10
2018-06-08T06:39:06.935Z,22.20
2018-06-08T06:41:37.405Z,23.10
2018-06-08T06:46:34.634Z,21.60
2018-06-08T06:49:03.515Z,22.40
2018-06-08T06:51:32.360Z,22.30
2018-06-08T06:54:01.185Z,22.50
2018-06-08T06:56:29.977Z,22.30
2018-06-08T06:58:58.783Z,22.40
2018-06-08T07:01:27.727Z,22.60
2018-06-08T07:03:56.825Z,22.20
2018-06-08T07:06:25.610Z,22.70
2018-06-08T07:08:54.415Z,22.90
2018-06-08T07:11:23.386Z,23.00
2018-06-08T07:13:52.340Z,23.20
2018-06-08T07:16:21.178Z,23.80
2018-06-08T07:18:50.130Z,23.20
2018-06-08T07:21:19.033Z,22.90
2018-06-08T07:23:47.771Z,22.90
2018-06-08T07:26:17.441Z,21.10
2018-06-08T07:28:46.208Z,23.20
2018-06-08T07:31:15.113Z,23.40
2018-06-08T07:33:43.868Z,23.20
2018-06-08T07:36:12.842Z,23.70
2018-06-08T07:41:10.246Z,24.00
2018-06-08T07:43:40.058Z,23.70
2018-06-08T07:46:09.165Z,23.90
2018-06-08T07:48:38.217Z,24.00
2018-06-08T07:51:07.608Z,24.30
2018-06-08T07:56:04.898Z,23.90
2018-06-08T08:01:02.340Z,24.10
2018-06-08T08:03:31.055Z,24.70
2018-06-08T08:05:59.799Z,24.30
2018-06-08T08:08:30.456Z,24.50
2018-06-08T08:10:59.220Z,24.70
2018-06-08T08:13:28.137Z,24.80
2018-06-08T08:15:57.054Z,24.20
2018-06-08T08:18:26.033Z,24.60
2018-06-08T08:26:00.231Z,24.60
2018-06-08T08:28:29.291Z,24.60
2018-06-08T08:30:57.978Z,24.90
2018-06-08T08:33:26.915Z,25.00
2018-06-08T08:35:56.092Z,24.80
2018-06-08T08:38:25.606Z,24.80
2018-06-08T08:40:54.772Z,24.60
2018-06-08T08:43:28.207Z,24.40
2018-06-08T08:45:57.078Z,24.60
2018-06-08T08:50:54.558Z,25.20
2018-06-08T08:53:29.821Z,25.50
2018-06-08T08:56:08.760Z,25.60
2018-06-08T08:58:37.714Z,25.50
2018-06-08T09:03:35.148Z,25.70
2018-06-08T09:06:04.187Z,25.60
2018-06-08T09:08:32.893Z,25.90
2018-06-08T09:11:01.898Z,26.00
2018-06-08T09:13:30.770Z,26.10
2018-06-08T09:18:36.869Z,26.50
2018-06-08T09:21:13.946Z,26.30
2018-06-08T09:23:43.200Z,26.40
2018-06-08T09:26:12.201Z,26.40
2018-06-08T09:28:41.250Z,26.70
2018-06-08T09:31:10.400Z,26.90
2018-06-08T09:33:39.174Z,26.90
2018-06-08T09:36:08.322Z,26.90
2018-06-08T09:38:37.411Z,26.70
2018-06-08T09:41:09.681Z,26.70
2018-06-08T09:43:41.207Z,26.70
2018-06-08T09:46:40.589Z,26.70
2018-06-08T09:49:11.500Z,27.20
2018-06-08T09:55:08.725Z,27.10
2018-06-08T09:57:38.527Z,27.20
2018-06-08T10:00:08.523Z,27.30
2018-06-08T10:02:37.766Z,27.70
2018-06-08T10:05:07.033Z,27.80
2018-06-08T10:07:37.946Z,27.70
2018-06-08T10:10:07.315Z,27.70
2018-06-08T10:12:36.398Z,27.80
2018-06-08T10:15:05.551Z,27.80
2018-06-08T10:17:37.670Z,27.20
2018-06-08T10:20:13.147Z,28.10
2018-06-08T10:23:26.462Z,28.30
2018-06-08T10:26:22.467Z,28.50
2018-06-08T10:29:09.575Z,28.40
2018-06-08T10:31:47.228Z,29.10
2018-06-08T10:34:16.404Z,28.90
2018-06-08T10:36:45.244Z,29.20
2018-06-08T10:39:14.218Z,29.10
2018-06-08T10:41:43.024Z,29.80
2018-06-08T10:44:12.388Z,30.60
2018-06-08T10:46:41.819Z,32.00
2018-06-08T10:49:10.926Z,31.70
2018-06-08T10:51:40.096Z,31.70
2018-06-08T10:54:09.225Z,32.60
2018-06-08T10:56:38.050Z,32.60
2018-06-08T10:59:07.374Z,31.90
2018-06-08T11:01:36.395Z,31.30
2018-06-08T11:09:02.291Z,33.70
2018-06-08T11:11:30.988Z,33.70
2018-06-08T11:13:59.957Z,34.50
2018-06-08T11:16:28.761Z,34.30
2018-06-08T11:18:57.743Z,34.70
2018-06-08T11:21:27.667Z,35.40
2018-06-08T11:23:57.124Z,35.10
2018-06-08T11:26:26.104Z,35.50
2018-06-08T11:28:54.808Z,35.50
2018-06-08T11:31:23.573Z,35.80
2018-06-08T11:33:52.326Z,35.60
2018-06-08T11:36:21.230Z,35.20
2018-06-08T11:38:50.633Z,35.00
2018-06-08T11:41:19.358Z,35.50
2018-06-08T11:43:48.093Z,35.90
2018-06-08T11:48:45.524Z,36.60
2018-06-08T11:51:25.734Z,36.50
2018-06-08T11:54:04.994Z,37.20
2018-06-08T11:56:35.783Z,37.40
2018-06-08T12:01:33.474Z,38.50
2018-06-08T12:04:02.384Z,34.50
2018-06-08T12:06:33.319Z,34.80
2018-06-08T12:09:02.384Z,34.80
2018-06-08T12:11:32.190Z,35.80
2018-06-08T12:14:01.028Z,34.60
2018-06-08T12:16:29.782Z,31.20
2018-06-08T12:18:58.570Z,33.60
2018-06-08T12:21:27.388Z,33.70
2018-06-08T12:26:24.757Z,35.10
2018-06-08T12:28:53.643Z,36.20
2018-06-08T12:31:22.406Z,34.40
2018-06-08T12:33:51.133Z,34.20
2018-06-08T12:36:20.038Z,34.60
2018-06-08T12:38:49.663Z,35.00
2018-06-08T12:41:18.574Z,33.60
2018-06-08T12:43:47.530Z,33.50
2018-06-08T12:46:16.378Z,33.70
2018-06-08T12:48:45.051Z,33.90
2018-06-08T12:51:14.196Z,34.20
2018-06-08T12:53:43.036Z,35.90
2018-06-08T12:56:11.771Z,35.60
2018-06-08T12:58:40.474Z,34.90
2018-06-08T13:01:29.202Z,35.10
2018-06-08T13:03:57.892Z,36.80
2018-06-08T13:06:33.248Z,37.00
2018-06-08T13:09:02.088Z,34.90
2018-06-08T13:11:31.271Z,36.20
2018-06-08T13:14:09.850Z,37.10
2018-06-08T13:16:39.014Z,36.00
2018-06-08T13:19:08.077Z,33.50
2018-06-08T13:21:36.797Z,33.40
2018-06-08T13:24:05.643Z,34.60
2018-06-08T13:26:34.444Z,36.00
2018-06-08T13:29:03.446Z,35.40
2018-06-08T13:31:32.265Z,34.80
2018-06-08T13:34:01.563Z,34.70
2018-06-08T13:36:36.838Z,36.10
2018-06-08T13:39:08.120Z,38.00
2018-06-08T13:41:36.715Z,35.00
2018-06-08T13:46:45.318Z,35.90
2018-06-08T13:49:14.202Z,38.20
2018-06-08T13:51:43.342Z,37.70
2018-06-08T13:54:12.087Z,37.10
2018-06-08T13:56:40.719Z,37.40
2018-06-08T13:59:09.451Z,36.90
2018-06-08T14:01:38.206Z,36.10
2018-06-08T14:04:07.285Z,35.50
2018-06-08T14:06:36.064Z,35.80
2018-06-08T14:09:06.261Z,35.60
2018-06-08T14:11:35.074Z,35.40
2018-06-08T14:14:04.631Z,35.40
2018-06-08T14:16:33.335Z,36.70
2018-06-08T14:19:02.011Z,38.60
2018-06-08T14:21:40.355Z,38.40
2018-06-08T14:24:27.102Z,36.10
2018-06-08T14:26:56.315Z,35.80
2018-06-08T14:29:25.017Z,35.90
2018-06-08T14:31:53.840Z,36.50
2018-06-08T14:34:23.439Z,36.70
2018-06-08T14:36:52.274Z,35.60
2018-06-08T14:39:21.183Z,35.20
2018-06-08T14:41:49.951Z,35.70
2018-06-08T14:46:47.168Z,35.70
2018-06-08T14:49:16.008Z,35.80
2018-06-08T14:51:44.932Z,33.90
2018-06-08T14:54:13.746Z,32.70
2018-06-08T14:56:42.533Z,33.30
2018-06-08T14:59:11.401Z,33.60
2018-06-08T15:01:40.161Z,34.40
2018-06-08T15:04:09.030Z,34.60
2018-06-08T15:06:37.979Z,34.50
2018-06-08T15:09:07.620Z,34.60
2018-06-08T15:11:36.186Z,34.00
2018-06-08T15:14:04.839Z,34.20
2018-06-08T15:19:01.993Z,34.10
2018-06-08T15:23:59.196Z,35.50
2018-06-08T15:26:28.060Z,35.40
2018-06-08T15:28:56.781Z,34.10
2018-06-08T15:31:25.969Z,34.50
2018-06-08T15:33:54.633Z,34.50
2018-06-08T15:36:23.462Z,34.10
2018-06-08T15:41:20.729Z,33.20
2018-06-08T15:43:49.381Z,33.10
2018-06-08T15:46:18.054Z,32.60
2018-06-08T15:48:46.850Z,32.60
2018-06-08T15:51:15.561Z,32.30
2018-06-08T15:56:12.667Z,31.80
2018-06-08T15:58:41.477Z,31.90
2018-06-08T16:01:10.240Z,32.30
2018-06-08T16:03:39.191Z,32.40
2018-06-08T16:06:07.893Z,31.90
2018-06-08T16:08:36.639Z,31.10
2018-06-08T16:11:05.509Z,31.30
2018-06-08T16:13:34.424Z,30.90
2018-06-08T16:16:03.175Z,31.50
2018-06-08T16:18:31.948Z,31.30
2018-06-08T16:21:01.023Z,31.30
2018-06-08T16:23:29.758Z,30.90
2018-06-08T16:25:58.522Z,30.90
2018-06-08T16:28:27.505Z,31.00
2018-06-08T16:30:57.195Z,31.20
2018-06-08T16:33:25.996Z,31.10
2018-06-08T16:35:54.735Z,31.00
2018-06-08T16:38:23.496Z,31.10
2018-06-08T16:40:52.224Z,30.80
2018-06-08T16:43:20.970Z,30.70
2018-06-08T16:45:49.849Z,30.80
2018-06-08T16:48:18.679Z,30.80
2018-06-08T16:50:47.573Z,30.60
2018-06-08T16:53:18.976Z,30.40
2018-06-08T16:55:47.712Z,30.40
2018-06-08T16:58:17.075Z,30.40
2018-06-08T17:00:45.733Z,30.40
2018-06-08T17:03:14.784Z,28.50
2018-06-08T17:05:43.678Z,30.20
2018-06-08T17:08:12.591Z,30.20
2018-06-08T17:10:41.570Z,30.40
2018-06-08T17:15:39.313Z,29.90
2018-06-08T17:18:08.160Z,30.20
2018-06-08T17:20:37.007Z,30.30
2018-06-08T17:23:05.796Z,30.20
2018-06-08T17:25:34.450Z,30.20
2018-06-08T17:28:03.148Z,30.30
2018-06-08T17:30:31.998Z,30.30
2018-06-08T17:33:00.674Z,30.20
2018-06-08T17:37:57.827Z,29.90
2018-06-08T17:40:26.490Z,29.90
2018-06-08T17:42:55.391Z,29.90
2018-06-08T17:45:24.125Z,29.70
2018-06-08T17:47:52.915Z,29.70
2018-06-08T17:52:50.262Z,29.10
2018-06-08T17:55:18.966Z,29.50
2018-06-08T18:00:16.156Z,29.40
2018-06-08T18:02:45.018Z,29.30
2018-06-08T18:05:13.750Z,29.20
2018-06-08T18:07:42.907Z,29.20
2018-06-08T18:10:12.367Z,29.30
2018-06-08T18:15:09.647Z,29.20
2018-06-08T18:17:38.693Z,29.20
2018-06-08T18:20:07.471Z,28.80
2018-06-08T18:22:36.197Z,28.80
2018-06-08T18:25:05.109Z,28.90
2018-06-08T18:27:34.189Z,28.80
2018-06-08T18:30:03.031Z,28.80
2018-06-08T18:32:31.725Z,28.90
2018-06-08T18:35:00.496Z,28.80
2018-06-08T18:37:29.172Z,28.60
2018-06-08T18:39:57.857Z,28.70
2018-06-08T18:42:26.519Z,28.60
2018-06-08T18:44:55.264Z,28.60
2018-06-08T18:47:24.966Z,28.60
2018-06-08T18:49:53.718Z,28.50
2018-06-08T18:52:22.389Z,28.40
2018-06-08T18:57:19.598Z,28.30
2018-06-08T18:59:48.421Z,27.90
2018-06-08T19:02:18.074Z,28.30
2018-06-08T19:04:47.037Z,28.50
2018-06-08T19:07:15.931Z,28.50
2018-06-08T19:09:44.564Z,28.50
2018-06-08T19:12:13.288Z,28.40
2018-06-08T19:14:42.122Z,28.30
2018-06-08T19:17:11.026Z,28.30
2018-06-08T19:19:45.524Z,28.20
2018-06-08T19:22:22.766Z,28.10
2018-06-08T19:24:52.043Z,28.10
2018-06-08T19:27:20.814Z,28.00
2018-06-08T19:29:49.543Z,28.10
2018-06-08T19:32:18.393Z,28.00
2018-06-08T19:34:47.200Z,28.00
2018-06-08T19:41:51.786Z,27.70
2018-06-08T19:44:20.553Z,27.70
2018-06-08T19:46:49.498Z,27.80
2018-06-08T19:49:18.210Z,27.90
2018-06-08T19:51:47.070Z,27.90
2018-06-08T19:54:15.989Z,27.90
2018-06-08T19:59:13.545Z,27.80
2018-06-08T20:04:10.639Z,27.60
2018-06-08T20:06:39.806Z,27.70
2018-06-08T20:09:08.727Z,27.80
2018-06-08T20:11:37.463Z,27.80
2018-06-08T20:14:06.219Z,27.70
2018-06-08T20:16:35.419Z,27.70
2018-06-08T20:19:04.286Z,27.60
2018-06-08T20:24:01.503Z,27.60
2018-06-08T20:26:30.333Z,27.60
2018-06-08T20:28:59.472Z,27.60
2018-06-08T20:31:28.159Z,27.40
2018-06-08T20:33:56.882Z,27.30
2018-06-08T20:36:25.734Z,27.40
2018-06-08T20:41:22.810Z,27.30
2018-06-08T20:43:51.709Z,27.20
2018-06-08T20:46:20.455Z,27.00
2018-06-08T20:48:49.602Z,26.90
2018-06-08T20:51:18.341Z,26.90
2018-06-08T20:53:47.137Z,26.90
2018-06-08T20:56:16.008Z,26.80
2018-06-08T20:58:44.730Z,26.80
2018-06-08T21:01:13.654Z,26.70
2018-06-08T21:03:42.352Z,26.60
2018-06-08T21:06:11.111Z,26.60
2018-06-08T21:08:39.941Z,26.60
2018-06-08T21:11:08.632Z,26.60
2018-06-08T21:13:37.453Z,26.50
2018-06-08T21:16:06.400Z,26.50
2018-06-08T21:18:35.136Z,26.50
2018-06-08T21:21:03.796Z,26.50
2018-06-08T21:23:33.140Z,26.50
2018-06-08T21:26:01.802Z,26.50
2018-06-08T21:30:58.851Z,26.40
2018-06-08T21:33:27.548Z,26.30
2018-06-08T21:35:56.357Z,26.30
2018-06-08T21:38:25.092Z,26.30
2018-06-08T21:40:53.644Z,26.00
2018-06-08T21:43:22.407Z,26.00
2018-06-08T21:48:19.499Z,25.70
2018-06-08T21:50:48.338Z,25.60
2018-06-08T21:53:16.967Z,25.50
2018-06-08T21:55:45.710Z,25.50
2018-06-08T21:58:14.525Z,25.60
2018-06-08T22:00:43.786Z,25.70
2018-06-08T22:03:12.678Z,25.70
2018-06-08T22:05:41.836Z,25.70
2018-06-08T22:08:10.664Z,25.60
2018-06-08T22:10:39.525Z,25.60
2018-06-08T22:13:08.428Z,25.70
2018-06-08T22:15:37.157Z,25.50
2018-06-08T22:18:05.883Z,25.60
2018-06-08T22:20:34.557Z,25.60
2018-06-08T22:25:38.923Z,25.60
2018-06-08T22:28:18.960Z,25.60
2018-06-08T22:30:56.875Z,25.50
2018-06-08T22:33:26.372Z,25.50
2018-06-08T22:35:55.042Z,25.50
2018-06-08T22:38:23.938Z,25.50
2018-06-08T22:40:52.676Z,25.40
2018-06-08T22:43:21.526Z,25.50
2018-06-08T22:45:50.248Z,25.40
2018-06-08T22:48:20.208Z,25.40
2018-06-08T22:50:49.086Z,25.40
2018-06-08T22:53:18.015Z,25.40
2018-06-08T22:55:46.858Z,25.50
2018-06-08T23:00:44.753Z,25.50
2018-06-08T23:03:13.509Z,25.60
2018-06-08T23:05:42.695Z,25.60
2018-06-08T23:08:11.386Z,25.60
2018-06-08T23:10:40.592Z,25.50
2018-06-08T23:13:09.270Z,25.50
2018-06-08T23:15:38.088Z,25.40
2018-06-08T23:20:35.407Z,25.20
2018-06-08T23:23:04.232Z,25.20
2018-06-08T23:25:32.951Z,25.20
2018-06-08T23:28:01.812Z,25.20
2018-06-08T23:30:30.524Z,25.20
2018-06-08T23:32:59.203Z,25.30
2018-06-08T23:37:56.621Z,25.30
2018-06-08T23:40:25.326Z,25.30
2018-06-08T23:42:54.469Z,25.30
2018-06-08T23:45:23.470Z,25.30
2018-06-08T23:47:52.263Z,25.30
2018-06-08T23:52:49.387Z,25.30
2018-06-08T23:55:18.141Z,25.30
2018-06-08T23:57:46.973Z,25.20
